sensor_id;sensor_type;location;lat;lon;timestamp;P1;durP1;ratioP1;P2;durP2;ratioP2
59306;SDS011;47983;53.016;-2.260;2023-02-28T00:01:28;12.52;;;6.13;;
59306;SDS011;47983;53.016;-2.260;2023-02-28T00:03:57;11.02;;;5.60;;
59306;SDS011;47983;53.016;-2.260;2023-02-28T00:06:25;11.45;;;6.18;;
59306;SDS011;47983;53.016;-2.260;2023-02-28T00:08:52;8.77;;;5.85;;
59306;SDS011;47983;53.016;-2.260;2023-02-28T00:11:20;10.18;;;6.05;;
59306;SDS011;47983;53.016;-2.260;2023-02-28T00:13:48;10.52;;;6.45;;
59306;SDS011;47983;53.016;-2.260;2023-02-28T00:16:18;14.98;;;6.70;;
59306;SDS011;47983;53.016;-2.260;2023-02-28T00:18:48;13.23;;;6.53;;
59306;SDS011;47983;53.016;-2.260;2023-02-28T00:21:16;12.45;;;5.95;;
59306;SDS011;47983;53.016;-2.260;2023-02-28T00:23:45;14.73;;;6.43;;
59306;SDS011;47983;53.016;-2.260;2023-02-28T00:26:13;13.90;;;7.32;;
59306;SDS011;47983;53.016;-2.260;2023-02-28T00:28:44;14.90;;;7.70;;
59306;SDS011;47983;53.016;-2.260;2023-02-28T00:31:12;12.32;;;7.07;;
59306;SDS011;47983;53.016;-2.260;2023-02-28T00:33:40;13.02;;;7.63;;
59306;SDS011;47983;53.016;-2.260;2023-02-28T00:36:08;15.00;;;7.40;;
59306;SDS011;47983;53.016;-2.260;2023-02-28T00:38:38;11.40;;;6.25;;
59306;SDS011;47983;53.016;-2.260;2023-02-28T00:41:07;11.98;;;6.63;;
59306;SDS011;47983;53.016;-2.260;2023-02-28T00:43:38;12.45;;;5.95;;
59306;SDS011;47983;53.016;-2.260;2023-02-28T00:46:06;12.65;;;4.97;;
59306;SDS011;47983;53.016;-2.260;2023-02-28T00:48:35;12.65;;;4.85;;
59306;SDS011;47983;53.016;-2.260;2023-02-28T00:51:03;9.88;;;4.82;;
59306;SDS011;47983;53.016;-2.260;2023-02-28T00:53:31;12.15;;;5.93;;
59306;SDS011;47983;53.016;-2.260;2023-02-28T00:55:59;11.30;;;5.88;;
59306;SDS011;47983;53.016;-2.260;2023-02-28T00:58:28;16.27;;;7.13;;
59306;SDS011;47983;53.016;-2.260;2023-02-28T01:00:56;16.10;;;8.73;;
59306;SDS011;47983;53.016;-2.260;2023-02-28T01:03:24;13.35;;;7.10;;
59306;SDS011;47983;53.016;-2.260;2023-02-28T01:05:52;14.50;;;7.43;;
59306;SDS011;47983;53.016;-2.260;2023-02-28T01:08:22;14.18;;;7.47;;
59306;SDS011;47983;53.016;-2.260;2023-02-28T01:10:50;14.55;;;7.45;;
59306;SDS011;47983;53.016;-2.260;2023-02-28T01:13:18;15.60;;;7.35;;
59306;SDS011;47983;53.016;-2.260;2023-02-28T01:15:50;14.48;;;7.40;;
59306;SDS011;47983;53.016;-2.260;2023-02-28T01:18:19;11.70;;;6.70;;
59306;SDS011;47983;53.016;-2.260;2023-02-28T01:20:48;12.63;;;7.15;;
59306;SDS011;47983;53.016;-2.260;2023-02-28T01:23:16;13.15;;;6.30;;
59306;SDS011;47983;53.016;-2.260;2023-02-28T01:25:43;12.10;;;6.53;;
59306;SDS011;47983;53.016;-2.260;2023-02-28T01:28:11;9.25;;;5.03;;
59306;SDS011;47983;53.016;-2.260;2023-02-28T01:30:39;12.88;;;6.68;;
59306;SDS011;47983;53.016;-2.260;2023-02-28T01:33:06;10.27;;;5.70;;
59306;SDS011;47983;53.016;-2.260;2023-02-28T01:35:34;11.38;;;6.13;;
59306;SDS011;47983;53.016;-2.260;2023-02-28T01:38:03;10.93;;;5.88;;
59306;SDS011;47983;53.016;-2.260;2023-02-28T01:40:47;9.63;;;5.07;;
59306;SDS011;47983;53.016;-2.260;2023-02-28T01:43:25;10.45;;;5.15;;
59306;SDS011;47983;53.016;-2.260;2023-02-28T01:45:55;12.43;;;5.85;;
59306;SDS011;47983;53.016;-2.260;2023-02-28T01:50:54;11.25;;;5.50;;
59306;SDS011;47983;53.016;-2.260;2023-02-28T01:53:29;9.57;;;5.15;;
59306;SDS011;47983;53.016;-2.260;2023-02-28T01:56:03;8.48;;;5.20;;
59306;SDS011;47983;53.016;-2.260;2023-02-28T01:58:34;10.00;;;5.30;;
59306;SDS011;47983;53.016;-2.260;2023-02-28T02:01:02;10.13;;;6.15;;
59306;SDS011;47983;53.016;-2.260;2023-02-28T02:03:30;10.38;;;6.35;;
59306;SDS011;47983;53.016;-2.260;2023-02-28T02:05:58;12.23;;;6.97;;
59306;SDS011;47983;53.016;-2.260;2023-02-28T02:08:26;12.10;;;6.07;;
59306;SDS011;47983;53.016;-2.260;2023-02-28T02:13:44;12.45;;;6.00;;
59306;SDS011;47983;53.016;-2.260;2023-02-28T02:35:54;7.72;;;2.85;;
59306;SDS011;47983;53.016;-2.260;2023-02-28T02:41:46;6.28;;;3.28;;
59306;SDS011;47983;53.016;-2.260;2023-02-28T02:44:23;8.82;;;3.53;;
59306;SDS011;47983;53.016;-2.260;2023-02-28T02:46:59;6.60;;;3.25;;
59306;SDS011;47983;53.016;-2.260;2023-02-28T02:49:34;6.50;;;3.42;;
59306;SDS011;47983;53.016;-2.260;2023-02-28T02:52:05;5.63;;;3.38;;
59306;SDS011;47983;53.016;-2.260;2023-02-28T02:54:37;7.75;;;3.03;;
59306;SDS011;47983;53.016;-2.260;2023-02-28T02:57:08;7.13;;;2.95;;
59306;SDS011;47983;53.016;-2.260;2023-02-28T02:59:45;7.10;;;3.28;;
59306;SDS011;47983;53.016;-2.260;2023-02-28T03:02:18;4.25;;;2.60;;
59306;SDS011;47983;53.016;-2.260;2023-02-28T03:04:56;7.90;;;3.17;;
59306;SDS011;47983;53.016;-2.260;2023-02-28T03:07:28;5.63;;;2.95;;
59306;SDS011;47983;53.016;-2.260;2023-02-28T03:09:56;5.05;;;2.70;;
59306;SDS011;47983;53.016;-2.260;2023-02-28T03:12:28;8.68;;;3.28;;
59306;SDS011;47983;53.016;-2.260;2023-02-28T03:15:18;6.10;;;2.58;;
59306;SDS011;47983;53.016;-2.260;2023-02-28T03:18:10;11.65;;;3.75;;
59306;SDS011;47983;53.016;-2.260;2023-02-28T03:26:55;9.75;;;3.90;;
59306;SDS011;47983;53.016;-2.260;2023-02-28T03:29:39;11.38;;;4.53;;
59306;SDS011;47983;53.016;-2.260;2023-02-28T03:32:21;10.43;;;5.18;;
59306;SDS011;47983;53.016;-2.260;2023-02-28T03:35:01;10.52;;;4.72;;
59306;SDS011;47983;53.016;-2.260;2023-02-28T03:37:50;8.63;;;4.55;;
59306;SDS011;47983;53.016;-2.260;2023-02-28T03:40:23;8.32;;;4.47;;
59306;SDS011;47983;53.016;-2.260;2023-02-28T03:42:56;9.05;;;4.63;;
59306;SDS011;47983;53.016;-2.260;2023-02-28T03:45:28;9.25;;;4.20;;
59306;SDS011;47983;53.016;-2.260;2023-02-28T03:48:03;10.15;;;4.90;;
59306;SDS011;47983;53.016;-2.260;2023-02-28T03:50:37;9.60;;;4.07;;
59306;SDS011;47983;53.016;-2.260;2023-02-28T03:55:58;8.38;;;3.40;;
59306;SDS011;47983;53.016;-2.260;2023-02-28T04:04:05;5.47;;;3.05;;
59306;SDS011;47983;53.016;-2.260;2023-02-28T04:06:32;7.97;;;3.55;;
59306;SDS011;47983;53.016;-2.260;2023-02-28T04:09:02;8.43;;;3.78;;
59306;SDS011;47983;53.016;-2.260;2023-02-28T04:11:36;10.32;;;4.10;;
59306;SDS011;47983;53.016;-2.260;2023-02-28T04:14:08;11.82;;;4.88;;
59306;SDS011;47983;53.016;-2.260;2023-02-28T04:19:07;9.53;;;4.20;;
59306;SDS011;47983;53.016;-2.260;2023-02-28T04:24:08;10.68;;;4.18;;
59306;SDS011;47983;53.016;-2.260;2023-02-28T04:26:42;9.80;;;4.13;;
59306;SDS011;47983;53.016;-2.260;2023-02-28T04:29:12;10.45;;;4.60;;
59306;SDS011;47983;53.016;-2.260;2023-02-28T04:31:41;12.55;;;4.60;;
59306;SDS011;47983;53.016;-2.260;2023-02-28T04:34:09;10.20;;;4.50;;
59306;SDS011;47983;53.016;-2.260;2023-02-28T04:36:36;12.23;;;5.15;;
59306;SDS011;47983;53.016;-2.260;2023-02-28T04:39:04;10.85;;;5.22;;
59306;SDS011;47983;53.016;-2.260;2023-02-28T04:41:32;10.23;;;5.07;;
59306;SDS011;47983;53.016;-2.260;2023-02-28T04:44:00;13.07;;;5.78;;
59306;SDS011;47983;53.016;-2.260;2023-02-28T04:46:28;11.90;;;5.78;;
59306;SDS011;47983;53.016;-2.260;2023-02-28T04:48:57;11.70;;;5.53;;
59306;SDS011;47983;53.016;-2.260;2023-02-28T04:51:26;14.90;;;5.60;;
59306;SDS011;47983;53.016;-2.260;2023-02-28T04:53:54;12.10;;;5.78;;
59306;SDS011;47983;53.016;-2.260;2023-02-28T04:56:22;13.82;;;6.30;;
59306;SDS011;47983;53.016;-2.260;2023-02-28T04:58:50;13.32;;;6.82;;
59306;SDS011;47983;53.016;-2.260;2023-02-28T05:01:24;13.15;;;6.13;;
59306;SDS011;47983;53.016;-2.260;2023-02-28T05:03:53;15.57;;;8.23;;
59306;SDS011;47983;53.016;-2.260;2023-02-28T05:08:50;14.60;;;6.93;;
59306;SDS011;47983;53.016;-2.260;2023-02-28T05:11:26;21.98;;;7.93;;
59306;SDS011;47983;53.016;-2.260;2023-02-28T05:14:02;17.08;;;7.78;;
59306;SDS011;47983;53.016;-2.260;2023-02-28T05:16:31;13.18;;;7.38;;
59306;SDS011;47983;53.016;-2.260;2023-02-28T05:18:59;18.77;;;8.65;;
59306;SDS011;47983;53.016;-2.260;2023-02-28T05:21:29;19.80;;;7.55;;
59306;SDS011;47983;53.016;-2.260;2023-02-28T05:24:01;20.95;;;8.15;;
59306;SDS011;47983;53.016;-2.260;2023-02-28T05:26:31;14.52;;;7.95;;
59306;SDS011;47983;53.016;-2.260;2023-02-28T05:29:02;18.50;;;9.25;;
59306;SDS011;47983;53.016;-2.260;2023-02-28T05:31:30;20.40;;;8.55;;
59306;SDS011;47983;53.016;-2.260;2023-02-28T05:33:59;21.23;;;8.55;;
59306;SDS011;47983;53.016;-2.260;2023-02-28T05:36:26;17.15;;;8.43;;
59306;SDS011;47983;53.016;-2.260;2023-02-28T05:38:54;20.15;;;8.27;;
59306;SDS011;47983;53.016;-2.260;2023-02-28T05:41:22;22.15;;;10.32;;
59306;SDS011;47983;53.016;-2.260;2023-02-28T05:43:49;19.50;;;8.30;;
59306;SDS011;47983;53.016;-2.260;2023-02-28T05:46:18;20.23;;;8.13;;
59306;SDS011;47983;53.016;-2.260;2023-02-28T05:48:46;18.27;;;7.90;;
59306;SDS011;47983;53.016;-2.260;2023-02-28T05:51:15;17.33;;;7.38;;
59306;SDS011;47983;53.016;-2.260;2023-02-28T05:53:43;18.40;;;8.18;;
59306;SDS011;47983;53.016;-2.260;2023-02-28T05:56:10;16.17;;;6.90;;
59306;SDS011;47983;53.016;-2.260;2023-02-28T05:58:38;15.18;;;7.38;;
59306;SDS011;47983;53.016;-2.260;2023-02-28T06:01:21;14.07;;;7.65;;
59306;SDS011;47983;53.016;-2.260;2023-02-28T06:03:59;16.35;;;8.50;;
59306;SDS011;47983;53.016;-2.260;2023-02-28T06:06:27;17.83;;;9.00;;
59306;SDS011;47983;53.016;-2.260;2023-02-28T06:08:56;25.42;;;9.40;;
59306;SDS011;47983;53.016;-2.260;2023-02-28T06:11:24;19.08;;;8.55;;
59306;SDS011;47983;53.016;-2.260;2023-02-28T06:13:58;19.55;;;8.65;;
59306;SDS011;47983;53.016;-2.260;2023-02-28T06:16:27;18.48;;;9.07;;
59306;SDS011;47983;53.016;-2.260;2023-02-28T06:18:57;19.77;;;9.48;;
59306;SDS011;47983;53.016;-2.260;2023-02-28T06:21:25;22.27;;;8.83;;
59306;SDS011;47983;53.016;-2.260;2023-02-28T06:23:55;19.15;;;7.63;;
59306;SDS011;47983;53.016;-2.260;2023-02-28T06:26:24;20.20;;;7.03;;
59306;SDS011;47983;53.016;-2.260;2023-02-28T06:28:52;23.30;;;7.72;;
59306;SDS011;47983;53.016;-2.260;2023-02-28T06:31:20;17.83;;;6.80;;
59306;SDS011;47983;53.016;-2.260;2023-02-28T06:33:49;23.80;;;6.30;;
59306;SDS011;47983;53.016;-2.260;2023-02-28T06:36:17;23.92;;;7.30;;
59306;SDS011;47983;53.016;-2.260;2023-02-28T06:38:45;19.30;;;7.28;;
59306;SDS011;47983;53.016;-2.260;2023-02-28T06:43:43;17.30;;;7.15;;
59306;SDS011;47983;53.016;-2.260;2023-02-28T06:46:11;21.25;;;7.00;;
59306;SDS011;47983;53.016;-2.260;2023-02-28T06:48:42;25.92;;;8.13;;
59306;SDS011;47983;53.016;-2.260;2023-02-28T06:51:12;17.73;;;7.78;;
59306;SDS011;47983;53.016;-2.260;2023-02-28T06:53:44;14.38;;;6.38;;
59306;SDS011;47983;53.016;-2.260;2023-02-28T06:56:12;16.75;;;6.97;;
59306;SDS011;47983;53.016;-2.260;2023-02-28T06:58:46;19.40;;;7.05;;
59306;SDS011;47983;53.016;-2.260;2023-02-28T07:01:15;16.35;;;6.30;;
59306;SDS011;47983;53.016;-2.260;2023-02-28T07:03:44;18.05;;;6.93;;
59306;SDS011;47983;53.016;-2.260;2023-02-28T07:06:12;15.82;;;7.15;;
59306;SDS011;47983;53.016;-2.260;2023-02-28T07:08:40;15.73;;;7.25;;
59306;SDS011;47983;53.016;-2.260;2023-02-28T07:11:08;16.73;;;7.57;;
59306;SDS011;47983;53.016;-2.260;2023-02-28T07:13:35;16.85;;;7.95;;
59306;SDS011;47983;53.016;-2.260;2023-02-28T07:16:04;16.92;;;8.45;;
59306;SDS011;47983;53.016;-2.260;2023-02-28T07:18:34;17.40;;;7.40;;
59306;SDS011;47983;53.016;-2.260;2023-02-28T07:21:04;18.27;;;8.25;;
59306;SDS011;47983;53.016;-2.260;2023-02-28T07:23:33;17.45;;;7.85;;
59306;SDS011;47983;53.016;-2.260;2023-02-28T07:26:01;17.27;;;7.53;;
59306;SDS011;47983;53.016;-2.260;2023-02-28T07:28:29;19.20;;;7.82;;
59306;SDS011;47983;53.016;-2.260;2023-02-28T07:31:02;17.33;;;7.35;;
59306;SDS011;47983;53.016;-2.260;2023-02-28T07:33:32;19.73;;;6.55;;
59306;SDS011;47983;53.016;-2.260;2023-02-28T07:36:03;17.65;;;7.57;;
59306;SDS011;47983;53.016;-2.260;2023-02-28T07:38:35;17.85;;;8.15;;
59306;SDS011;47983;53.016;-2.260;2023-02-28T07:41:04;24.70;;;8.27;;
59306;SDS011;47983;53.016;-2.260;2023-02-28T07:43:32;17.55;;;8.43;;
59306;SDS011;47983;53.016;-2.260;2023-02-28T07:46:04;20.10;;;7.88;;
59306;SDS011;47983;53.016;-2.260;2023-02-28T07:48:33;17.38;;;8.43;;
59306;SDS011;47983;53.016;-2.260;2023-02-28T07:51:00;18.35;;;8.30;;
59306;SDS011;47983;53.016;-2.260;2023-02-28T07:53:29;16.92;;;8.25;;
59306;SDS011;47983;53.016;-2.260;2023-02-28T07:55:57;15.25;;;7.30;;
59306;SDS011;47983;53.016;-2.260;2023-02-28T07:58:26;17.45;;;7.40;;
59306;SDS011;47983;53.016;-2.260;2023-02-28T08:00:56;16.80;;;7.25;;
59306;SDS011;47983;53.016;-2.260;2023-02-28T08:03:24;14.60;;;6.35;;
59306;SDS011;47983;53.016;-2.260;2023-02-28T08:05:52;15.63;;;7.55;;
59306;SDS011;47983;53.016;-2.260;2023-02-28T08:08:20;17.27;;;7.32;;
59306;SDS011;47983;53.016;-2.260;2023-02-28T08:10:48;17.52;;;7.60;;
59306;SDS011;47983;53.016;-2.260;2023-02-28T08:13:16;15.63;;;7.10;;
59306;SDS011;47983;53.016;-2.260;2023-02-28T08:15:43;16.77;;;7.25;;
59306;SDS011;47983;53.016;-2.260;2023-02-28T08:18:13;13.93;;;5.93;;
59306;SDS011;47983;53.016;-2.260;2023-02-28T08:20:40;15.02;;;6.22;;
59306;SDS011;47983;53.016;-2.260;2023-02-28T08:23:08;12.55;;;6.38;;
59306;SDS011;47983;53.016;-2.260;2023-02-28T08:25:36;13.25;;;6.53;;
59306;SDS011;47983;53.016;-2.260;2023-02-28T08:28:03;13.25;;;6.82;;
59306;SDS011;47983;53.016;-2.260;2023-02-28T08:30:31;13.82;;;6.53;;
59306;SDS011;47983;53.016;-2.260;2023-02-28T08:32:59;12.07;;;5.50;;
59306;SDS011;47983;53.016;-2.260;2023-02-28T08:35:28;12.02;;;5.55;;
59306;SDS011;47983;53.016;-2.260;2023-02-28T08:37:56;11.80;;;5.55;;
59306;SDS011;47983;53.016;-2.260;2023-02-28T08:40:23;13.98;;;5.30;;
59306;SDS011;47983;53.016;-2.260;2023-02-28T08:42:51;15.05;;;6.68;;
59306;SDS011;47983;53.016;-2.260;2023-02-28T08:45:19;11.82;;;5.35;;
59306;SDS011;47983;53.016;-2.260;2023-02-28T08:47:47;11.77;;;6.38;;
59306;SDS011;47983;53.016;-2.260;2023-02-28T08:50:15;11.85;;;5.47;;
59306;SDS011;47983;53.016;-2.260;2023-02-28T08:52:43;13.15;;;5.63;;
59306;SDS011;47983;53.016;-2.260;2023-02-28T08:55:11;12.48;;;5.47;;
59306;SDS011;47983;53.016;-2.260;2023-02-28T08:57:38;9.75;;;5.40;;
59306;SDS011;47983;53.016;-2.260;2023-02-28T09:00:06;8.90;;;5.00;;
59306;SDS011;47983;53.016;-2.260;2023-02-28T09:02:35;10.35;;;5.20;;
59306;SDS011;47983;53.016;-2.260;2023-02-28T09:05:02;10.35;;;5.78;;
59306;SDS011;47983;53.016;-2.260;2023-02-28T09:07:30;16.45;;;6.55;;
59306;SDS011;47983;53.016;-2.260;2023-02-28T09:09:58;11.23;;;5.13;;
59306;SDS011;47983;53.016;-2.260;2023-02-28T09:12:28;11.90;;;5.40;;
59306;SDS011;47983;53.016;-2.260;2023-02-28T09:15:04;10.13;;;4.95;;
59306;SDS011;47983;53.016;-2.260;2023-02-28T09:17:33;8.38;;;4.32;;
59306;SDS011;47983;53.016;-2.260;2023-02-28T09:20:00;8.35;;;4.40;;
59306;SDS011;47983;53.016;-2.260;2023-02-28T09:22:28;8.38;;;4.25;;
59306;SDS011;47983;53.016;-2.260;2023-02-28T09:24:56;8.48;;;4.72;;
59306;SDS011;47983;53.016;-2.260;2023-02-28T09:27:24;8.75;;;4.63;;
59306;SDS011;47983;53.016;-2.260;2023-02-28T09:29:51;11.40;;;4.43;;
59306;SDS011;47983;53.016;-2.260;2023-02-28T09:32:19;6.10;;;4.07;;
59306;SDS011;47983;53.016;-2.260;2023-02-28T09:34:47;8.55;;;4.15;;
59306;SDS011;47983;53.016;-2.260;2023-02-28T09:37:14;6.30;;;3.78;;
59306;SDS011;47983;53.016;-2.260;2023-02-28T09:39:42;8.85;;;4.32;;
59306;SDS011;47983;53.016;-2.260;2023-02-28T09:42:25;7.50;;;3.28;;
59306;SDS011;47983;53.016;-2.260;2023-02-28T09:45:00;9.82;;;3.67;;
59306;SDS011;47983;53.016;-2.260;2023-02-28T09:47:34;8.13;;;3.45;;
59306;SDS011;47983;53.016;-2.260;2023-02-28T09:50:11;9.48;;;3.42;;
59306;SDS011;47983;53.016;-2.260;2023-02-28T09:55:51;6.80;;;3.15;;
59306;SDS011;47983;53.016;-2.260;2023-02-28T09:58:27;6.47;;;3.35;;
59306;SDS011;47983;53.016;-2.260;2023-02-28T10:00:57;6.13;;;2.40;;
59306;SDS011;47983;53.016;-2.260;2023-02-28T10:03:40;4.88;;;2.53;;
59306;SDS011;47983;53.016;-2.260;2023-02-28T10:08:44;4.13;;;2.05;;
59306;SDS011;47983;53.016;-2.260;2023-02-28T10:11:18;2.25;;;1.83;;
59306;SDS011;47983;53.016;-2.260;2023-02-28T10:13:51;4.75;;;2.15;;
59306;SDS011;47983;53.016;-2.260;2023-02-28T10:19:06;2.63;;;1.70;;
59306;SDS011;47983;53.016;-2.260;2023-02-28T10:21:46;6.60;;;1.75;;
59306;SDS011;47983;53.016;-2.260;2023-02-28T10:27:02;3.45;;;1.80;;
59306;SDS011;47983;53.016;-2.260;2023-02-28T10:29:45;2.85;;;1.85;;
59306;SDS011;47983;53.016;-2.260;2023-02-28T10:32:15;3.47;;;1.42;;
59306;SDS011;47983;53.016;-2.260;2023-02-28T10:34:55;5.97;;;2.17;;
59306;SDS011;47983;53.016;-2.260;2023-02-28T10:37:33;4.25;;;1.75;;
59306;SDS011;47983;53.016;-2.260;2023-02-28T10:40:05;4.43;;;2.45;;
59306;SDS011;47983;53.016;-2.260;2023-02-28T10:45:57;1.90;;;1.60;;
59306;SDS011;47983;53.016;-2.260;2023-02-28T10:48:30;2.35;;;1.60;;
59306;SDS011;47983;53.016;-2.260;2023-02-28T10:51:07;3.03;;;1.45;;
59306;SDS011;47983;53.016;-2.260;2023-02-28T10:56:27;2.13;;;1.38;;
59306;SDS011;47983;53.016;-2.260;2023-02-28T10:58:57;6.88;;;1.45;;
59306;SDS011;47983;53.016;-2.260;2023-02-28T11:04:17;2.53;;;1.33;;
59306;SDS011;47983;53.016;-2.260;2023-02-28T11:07:00;2.45;;;0.98;;
59306;SDS011;47983;53.016;-2.260;2023-02-28T11:09:41;3.15;;;1.27;;
59306;SDS011;47983;53.016;-2.260;2023-02-28T11:12:27;2.85;;;1.35;;
59306;SDS011;47983;53.016;-2.260;2023-02-28T11:15:01;2.17;;;1.05;;
59306;SDS011;47983;53.016;-2.260;2023-02-28T11:17:32;1.48;;;1.10;;
59306;SDS011;47983;53.016;-2.260;2023-02-28T11:20:02;2.50;;;0.90;;
59306;SDS011;47983;53.016;-2.260;2023-02-28T11:22:35;2.75;;;0.82;;
59306;SDS011;47983;53.016;-2.260;2023-02-28T11:25:09;1.42;;;0.90;;
59306;SDS011;47983;53.016;-2.260;2023-02-28T11:27:49;1.23;;;0.73;;
59306;SDS011;47983;53.016;-2.260;2023-02-28T11:30:32;1.38;;;0.60;;
59306;SDS011;47983;53.016;-2.260;2023-02-28T11:35:48;1.20;;;0.80;;
59306;SDS011;47983;53.016;-2.260;2023-02-28T11:38:17;2.10;;;1.00;;
59306;SDS011;47983;53.016;-2.260;2023-02-28T11:46:30;0.93;;;0.57;;
59306;SDS011;47983;53.016;-2.260;2023-02-28T11:49:18;3.30;;;0.52;;
59306;SDS011;47983;53.016;-2.260;2023-02-28T11:57:28;2.72;;;0.90;;
59306;SDS011;47983;53.016;-2.260;2023-02-28T12:05:42;0.98;;;0.60;;
59306;SDS011;47983;53.016;-2.260;2023-02-28T12:11:11;2.25;;;0.60;;
59306;SDS011;47983;53.016;-2.260;2023-02-28T12:22:38;2.45;;;0.52;;
59306;SDS011;47983;53.016;-2.260;2023-02-28T12:28:14;1.77;;;0.55;;
59306;SDS011;47983;53.016;-2.260;2023-02-28T12:30:56;1.25;;;0.47;;
59306;SDS011;47983;53.016;-2.260;2023-02-28T12:33:31;1.83;;;0.63;;
59306;SDS011;47983;53.016;-2.260;2023-02-28T12:36:04;2.58;;;0.73;;
59306;SDS011;47983;53.016;-2.260;2023-02-28T12:41:22;2.17;;;0.70;;
59306;SDS011;47983;53.016;-2.260;2023-02-28T12:44:19;1.75;;;0.52;;
59306;SDS011;47983;53.016;-2.260;2023-02-28T12:47:04;1.98;;;0.60;;
59306;SDS011;47983;53.016;-2.260;2023-02-28T12:52:26;2.60;;;0.73;;
59306;SDS011;47983;53.016;-2.260;2023-02-28T12:55:15;4.13;;;0.60;;
59306;SDS011;47983;53.016;-2.260;2023-02-28T12:58:26;1.65;;;0.60;;
59306;SDS011;47983;53.016;-2.260;2023-02-28T13:09:27;1.70;;;0.82;;
59306;SDS011;47983;53.016;-2.260;2023-02-28T13:11:56;2.55;;;1.27;;
59306;SDS011;47983;53.016;-2.260;2023-02-28T13:14:29;4.05;;;0.90;;
59306;SDS011;47983;53.016;-2.260;2023-02-28T13:19:45;1.48;;;0.60;;
59306;SDS011;47983;53.016;-2.260;2023-02-28T13:28:01;2.42;;;0.60;;
59306;SDS011;47983;53.016;-2.260;2023-02-28T13:33:35;1.35;;;0.85;;
59306;SDS011;47983;53.016;-2.260;2023-02-28T13:36:30;6.65;;;1.50;;
59306;SDS011;47983;53.016;-2.260;2023-02-28T13:38:59;0.57;;;0.52;;
59306;SDS011;47983;53.016;-2.260;2023-02-28T13:46:29;2.90;;;1.00;;
59306;SDS011;47983;53.016;-2.260;2023-02-28T13:52:33;0.75;;;0.50;;
59306;SDS011;47983;53.016;-2.260;2023-02-28T14:03:07;1.77;;;0.68;;
59306;SDS011;47983;53.016;-2.260;2023-02-28T14:05:40;2.38;;;0.70;;
59306;SDS011;47983;53.016;-2.260;2023-02-28T14:08:16;2.28;;;0.70;;
59306;SDS011;47983;53.016;-2.260;2023-02-28T14:10:48;5.07;;;0.50;;
59306;SDS011;47983;53.016;-2.260;2023-02-28T14:13:39;2.13;;;0.65;;
59306;SDS011;47983;53.016;-2.260;2023-02-28T14:16:55;2.03;;;0.57;;
59306;SDS011;47983;53.016;-2.260;2023-02-28T14:21:58;0.98;;;0.80;;
59306;SDS011;47983;53.016;-2.260;2023-02-28T14:38:13;1.90;;;0.88;;
59306;SDS011;47983;53.016;-2.260;2023-02-28T14:40:45;4.60;;;1.85;;
59306;SDS011;47983;53.016;-2.260;2023-02-28T14:43:20;2.22;;;1.63;;
59306;SDS011;47983;53.016;-2.260;2023-02-28T14:45:57;4.95;;;1.40;;
59306;SDS011;47983;53.016;-2.260;2023-02-28T14:48:27;7.50;;;2.00;;
59306;SDS011;47983;53.016;-2.260;2023-02-28T14:50:59;5.57;;;1.65;;
59306;SDS011;47983;53.016;-2.260;2023-02-28T14:53:29;5.30;;;1.98;;
59306;SDS011;47983;53.016;-2.260;2023-02-28T14:56:02;7.10;;;2.00;;
59306;SDS011;47983;53.016;-2.260;2023-02-28T14:58:31;5.25;;;1.48;;
59306;SDS011;47983;53.016;-2.260;2023-02-28T15:01:02;1.40;;;0.98;;
59306;SDS011;47983;53.016;-2.260;2023-02-28T15:03:34;3.88;;;0.88;;
59306;SDS011;47983;53.016;-2.260;2023-02-28T15:06:05;2.33;;;0.80;;
59306;SDS011;47983;53.016;-2.260;2023-02-28T15:08:40;2.95;;;0.63;;
59306;SDS011;47983;53.016;-2.260;2023-02-28T15:11:11;1.88;;;0.60;;
59306;SDS011;47983;53.016;-2.260;2023-02-28T15:13:44;1.30;;;0.60;;
59306;SDS011;47983;53.016;-2.260;2023-02-28T15:16:22;2.05;;;0.75;;
59306;SDS011;47983;53.016;-2.260;2023-02-28T15:18:50;4.63;;;1.08;;
59306;SDS011;47983;53.016;-2.260;2023-02-28T15:21:32;2.00;;;0.70;;
59306;SDS011;47983;53.016;-2.260;2023-02-28T15:26:40;1.05;;;0.77;;
59306;SDS011;47983;53.016;-2.260;2023-02-28T15:29:16;2.13;;;0.90;;
59306;SDS011;47983;53.016;-2.260;2023-02-28T15:31:55;3.80;;;1.05;;
59306;SDS011;47983;53.016;-2.260;2023-02-28T15:37:31;5.25;;;1.20;;
59306;SDS011;47983;53.016;-2.260;2023-02-28T15:40:14;4.28;;;1.38;;
59306;SDS011;47983;53.016;-2.260;2023-02-28T15:45:50;3.08;;;0.60;;
59306;SDS011;47983;53.016;-2.260;2023-02-28T15:48:25;3.13;;;0.77;;
59306;SDS011;47983;53.016;-2.260;2023-02-28T15:53:54;1.50;;;0.60;;
59306;SDS011;47983;53.016;-2.260;2023-02-28T15:56:33;1.92;;;0.85;;
59306;SDS011;47983;53.016;-2.260;2023-02-28T15:59:05;2.28;;;0.80;;
59306;SDS011;47983;53.016;-2.260;2023-02-28T16:01:38;1.85;;;1.08;;
59306;SDS011;47983;53.016;-2.260;2023-02-28T16:04:12;0.50;;;0.50;;
59306;SDS011;47983;53.016;-2.260;2023-02-28T16:06:43;1.52;;;0.75;;
59306;SDS011;47983;53.016;-2.260;2023-02-28T16:09:13;1.90;;;0.57;;
59306;SDS011;47983;53.016;-2.260;2023-02-28T16:11:49;3.75;;;0.70;;
59306;SDS011;47983;53.016;-2.260;2023-02-28T16:14:20;3.00;;;0.80;;
59306;SDS011;47983;53.016;-2.260;2023-02-28T16:16:51;1.33;;;0.60;;
59306;SDS011;47983;53.016;-2.260;2023-02-28T16:19:22;4.13;;;0.60;;
59306;SDS011;47983;53.016;-2.260;2023-02-28T16:21:50;2.50;;;0.70;;
59306;SDS011;47983;53.016;-2.260;2023-02-28T16:24:18;1.88;;;0.57;;
59306;SDS011;47983;53.016;-2.260;2023-02-28T16:26:47;2.75;;;0.85;;
59306;SDS011;47983;53.016;-2.260;2023-02-28T16:29:29;1.50;;;0.80;;
59306;SDS011;47983;53.016;-2.260;2023-02-28T16:32:04;3.03;;;1.10;;
59306;SDS011;47983;53.016;-2.260;2023-02-28T16:34:32;6.57;;;1.30;;
59306;SDS011;47983;53.016;-2.260;2023-02-28T16:37:00;1.38;;;1.08;;
59306;SDS011;47983;53.016;-2.260;2023-02-28T16:39:28;4.00;;;1.60;;
59306;SDS011;47983;53.016;-2.260;2023-02-28T16:41:56;2.33;;;1.35;;
59306;SDS011;47983;53.016;-2.260;2023-02-28T16:44:27;4.03;;;1.48;;
59306;SDS011;47983;53.016;-2.260;2023-02-28T16:46:59;3.22;;;1.27;;
59306;SDS011;47983;53.016;-2.260;2023-02-28T16:49:28;1.95;;;1.08;;
59306;SDS011;47983;53.016;-2.260;2023-02-28T16:51:56;6.65;;;1.10;;
59306;SDS011;47983;53.016;-2.260;2023-02-28T16:54:24;6.32;;;1.35;;
59306;SDS011;47983;53.016;-2.260;2023-02-28T16:56:52;3.25;;;1.00;;
59306;SDS011;47983;53.016;-2.260;2023-02-28T16:59:23;1.52;;;0.70;;
59306;SDS011;47983;53.016;-2.260;2023-02-28T17:01:54;3.63;;;1.35;;
59306;SDS011;47983;53.016;-2.260;2023-02-28T17:04:25;4.82;;;1.02;;
59306;SDS011;47983;53.016;-2.260;2023-02-28T17:06:53;4.85;;;2.60;;
59306;SDS011;47983;53.016;-2.260;2023-02-28T17:09:22;2.67;;;1.02;;
59306;SDS011;47983;53.016;-2.260;2023-02-28T17:12:07;2.47;;;0.60;;
59306;SDS011;47983;53.016;-2.260;2023-02-28T17:14:35;3.22;;;1.05;;
59306;SDS011;47983;53.016;-2.260;2023-02-28T17:17:06;0.93;;;0.60;;
59306;SDS011;47983;53.016;-2.260;2023-02-28T17:19:34;5.65;;;1.17;;
59306;SDS011;47983;53.016;-2.260;2023-02-28T17:22:03;5.25;;;1.20;;
59306;SDS011;47983;53.016;-2.260;2023-02-28T17:24:30;1.63;;;0.77;;
59306;SDS011;47983;53.016;-2.260;2023-02-28T17:26:58;4.50;;;1.30;;
59306;SDS011;47983;53.016;-2.260;2023-02-28T17:29:26;1.83;;;1.02;;
59306;SDS011;47983;53.016;-2.260;2023-02-28T17:31:54;1.95;;;1.08;;
59306;SDS011;47983;53.016;-2.260;2023-02-28T17:34:26;1.85;;;1.00;;
59306;SDS011;47983;53.016;-2.260;2023-02-28T17:36:54;1.40;;;0.63;;
59306;SDS011;47983;53.016;-2.260;2023-02-28T17:39:21;1.80;;;1.10;;
59306;SDS011;47983;53.016;-2.260;2023-02-28T17:41:53;4.50;;;1.00;;
59306;SDS011;47983;53.016;-2.260;2023-02-28T17:44:22;3.72;;;1.73;;
59306;SDS011;47983;53.016;-2.260;2023-02-28T17:46:51;2.85;;;1.50;;
59306;SDS011;47983;53.016;-2.260;2023-02-28T17:49:20;3.63;;;1.25;;
59306;SDS011;47983;53.016;-2.260;2023-02-28T17:51:48;1.92;;;1.20;;